Time;durP1;ratioP1;P1;durP2;ratioP2;P2;SDS_P1;SDS_P2;PMS_P1;PMS_P2;Temp;Humidity;BMP_temperature;BMP_pressure;BME280_temperature;BME280_humidity;BME280_pressure;Samples;Min_cycle;Max_cycle;Signal;HPM_P1;HPM_P2
2023/03/05 00:00:13;;;;;;;5.40;0.85;;;4.10;99.90;;;;;;5084512;28;20087;-70
2023/03/05 00:02:39;;;;;;;3.83;0.70;;;4.20;99.90;;;;;;5079086;28;20051;-71
2023/03/05 00:05:05;;;;;;;2.65;0.60;;;4.20;99.90;;;;;;5093780;28;20062;-71
2023/03/05 00:07:32;;;;;;;4.07;0.80;;;4.20;99.90;;;;;;5088711;28;20052;-71
2023/03/05 00:10:02;;;;;;;4.18;0.80;;;4.20;99.90;;;;;;5073387;28;20059;-71
2023/03/05 00:12:28;;;;;;;5.18;0.85;;;4.20;99.90;;;;;;5085980;28;20749;-71
2023/03/05 00:14:54;;;;;;;3.03;0.52;;;4.20;99.90;;;;;;5073678;28;20071;-71
2023/03/05 00:17:20;;;;;;;4.88;0.90;;;4.20;99.90;;;;;;5070777;28;20077;-71
2023/03/05 00:19:45;;;;;;;4.40;0.80;;;4.20;99.90;;;;;;5073112;28;20119;-71
2023/03/05 00:22:11;;;;;;;2.97;0.80;;;4.20;99.90;;;;;;5071438;28;20039;-71
2023/03/05 00:24:37;;;;;;;2.10;0.50;;;4.20;99.90;;;;;;5067386;28;20073;-71
2023/03/05 00:27:02;;;;;;;6.00;1.02;;;4.20;99.90;;;;;;5067660;28;20041;-70
2023/03/05 00:29:28;;;;;;;3.50;0.88;;;4.20;99.90;;;;;;5056797;28;20095;-71
2023/03/05 00:31:54;;;;;;;5.40;0.70;;;4.20;99.90;;;;;;5053239;28;20036;-71
2023/03/05 00:34:21;;;;;;;3.10;0.82;;;4.20;99.90;;;;;;5075162;28;20032;-71
2023/03/05 00:36:49;;;;;;;4.95;0.90;;;4.20;99.90;;;;;;5054855;28;20066;-71
2023/03/05 00:39:16;;;;;;;5.30;1.05;;;4.20;99.90;;;;;;5080645;28;20052;-70
2023/03/05 00:41:42;;;;;;;2.78;0.60;;;4.20;99.90;;;;;;5084082;28;20036;-71
2023/03/05 00:44:08;;;;;;;6.13;0.80;;;4.20;99.90;;;;;;5079459;28;20127;-71
2023/03/05 00:46:34;;;;;;;2.20;0.57;;;4.20;99.90;;;;;;5089936;28;20125;-71
2023/03/05 00:49:00;;;;;;;3.80;0.70;;;4.20;99.90;;;;;;5065870;28;20040;-72
2023/03/05 00:51:26;;;;;;;5.35;0.70;;;4.30;99.90;;;;;;5071176;28;20032;-71
2023/03/05 00:53:52;;;;;;;4.72;0.73;;;4.30;99.90;;;;;;5083216;28;20079;-71
2023/03/05 00:56:17;;;;;;;3.70;0.90;;;4.30;99.90;;;;;;5070915;28;20040;-71
2023/03/05 00:58:43;;;;;;;2.10;0.63;;;4.30;99.90;;;;;;5085061;28;20056;-71
2023/03/05 01:01:09;;;;;;;3.70;0.60;;;4.30;99.90;;;;;;5054491;28;20483;-72
2023/03/05 01:03:35;;;;;;;2.50;0.52;;;4.30;99.90;;;;;;5055662;28;20047;-71
2023/03/05 01:06:04;;;;;;;4.03;0.40;;;4.30;99.90;;;;;;5054351;28;20527;-71
2023/03/05 01:08:30;;;;;;;2.67;0.40;;;4.30;99.90;;;;;;5068227;28;20145;-71
2023/03/05 01:10:56;;;;;;;3.03;0.30;;;4.30;99.90;;;;;;5081743;28;20419;-71
2023/03/05 01:13:22;;;;;;;2.40;0.57;;;4.30;99.90;;;;;;5057764;28;20117;-71
2023/03/05 01:15:49;;;;;;;3.97;0.60;;;4.30;99.90;;;;;;5075280;28;20043;-71
2023/03/05 01:18:16;;;;;;;3.85;0.70;;;4.20;99.90;;;;;;5091574;28;20123;-71
2023/03/05 01:20:43;;;;;;;4.20;0.77;;;4.10;99.90;;;;;;5077127;28;20527;-71
2023/03/05 01:23:08;;;;;;;6.18;0.90;;;4.10;99.90;;;;;;5059914;28;20100;-71
2023/03/05 01:25:34;;;;;;;2.90;0.50;;;4.00;99.90;;;;;;5050978;28;20040;-71
2023/03/05 01:28:00;;;;;;;2.65;0.90;;;4.00;99.90;;;;;;5074990;28;20092;-71
2023/03/05 01:30:26;;;;;;;2.28;0.63;;;4.00;99.90;;;;;;5085073;28;20035;-71
2023/03/05 01:32:51;;;;;;;3.50;0.80;;;4.00;99.90;;;;;;5087870;28;20090;-71
2023/03/05 01:35:20;;;;;;;6.40;0.80;;;3.90;99.90;;;;;;5083331;28;20039;-71
2023/03/05 01:37:46;;;;;;;3.70;0.70;;;3.90;99.90;;;;;;5075450;28;20159;-71
2023/03/05 01:40:15;;;;;;;2.78;0.60;;;4.00;99.90;;;;;;5082211;28;20086;-71
2023/03/05 01:42:46;;;;;;;2.60;0.60;;;3.90;99.90;;;;;;5084122;28;20664;-71
2023/03/05 01:45:15;;;;;;;1.60;0.50;;;3.90;99.90;;;;;;5083424;28;20120;-71
2023/03/05 01:47:41;;;;;;;2.47;0.40;;;3.90;99.90;;;;;;5085776;28;20092;-71
2023/03/05 01:50:11;;;;;;;1.70;0.40;;;3.90;99.90;;;;;;5081550;28;20130;-71
2023/03/05 01:52:40;;;;;;;1.30;0.30;;;3.80;99.90;;;;;;5067358;28;20044;-71
2023/03/05 01:55:12;;;;;;;1.35;0.47;;;3.80;99.90;;;;;;5086639;28;20122;-71
2023/03/05 01:57:41;;;;;;;2.22;0.40;;;3.70;99.90;;;;;;5079233;28;20027;-71
2023/03/05 02:00:11;;;;;;;1.65;0.50;;;3.80;99.90;;;;;;5070369;27;20039;-71
2023/03/05 02:02:37;;;;;;;3.08;0.60;;;3.90;99.90;;;;;;5076561;28;20188;-71
2023/03/05 02:05:09;;;;;;;2.08;0.63;;;3.80;99.90;;;;;;5078695;28;20047;-71
2023/03/05 02:07:36;;;;;;;3.38;0.70;;;3.90;99.90;;;;;;5063816;28;20058;-71
2023/03/05 02:10:24;;;;;;;3.72;0.90;;;3.90;99.90;;;;;;5061665;28;20406;-71
2023/03/05 02:12:53;;;;;;;2.63;0.55;;;3.90;99.90;;;;;;5063269;28;20063;-70
2023/03/05 02:15:19;;;;;;;2.70;0.70;;;3.90;99.90;;;;;;5066664;28;20074;-70
2023/03/05 02:17:45;;;;;;;3.10;0.80;;;3.90;99.90;;;;;;5057637;28;20130;-70
2023/03/05 02:20:23;;;;;;;0.73;0.28;;;3.80;99.90;;;;;;5080164;28;20039;-70
2023/03/05 02:22:49;;;;;;;2.28;0.50;;;3.80;99.90;;;;;;5076540;28;20067;-70
2023/03/05 02:25:16;;;;;;;2.22;0.63;;;3.90;99.90;;;;;;5064098;28;20071;-70
2023/03/05 02:27:49;;;;;;;1.58;0.50;;;3.80;99.90;;;;;;5070817;28;20050;-71
2023/03/05 02:30:15;;;;;;;1.83;0.50;;;3.90;99.90;;;;;;5071416;28;20133;-70
2023/03/05 02:32:41;;;;;;;1.37;0.40;;;3.90;99.90;;;;;;5090369;28;20052;-71
2023/03/05 02:35:07;;;;;;;1.40;0.40;;;3.80;99.90;;;;;;5071802;28;20330;-71
2023/03/05 02:37:33;;;;;;;1.52;0.50;;;3.90;99.90;;;;;;5051904;28;20035;-71
2023/03/05 02:39:59;;;;;;;2.63;0.60;;;3.80;99.90;;;;;;5074252;28;20040;-70
2023/03/05 02:42:24;;;;;;;2.38;0.55;;;3.80;99.90;;;;;;5080643;28;20060;-70
2023/03/05 02:44:50;;;;;;;0.35;0.20;;;3.80;99.90;;;;;;5072990;28;20162;-70
2023/03/05 02:47:16;;;;;;;1.45;0.60;;;3.70;99.90;;;;;;5065093;28;20043;-70
2023/03/05 02:49:41;;;;;;;1.92;0.60;;;3.70;99.90;;;;;;5076661;28;20046;-70
2023/03/05 02:52:07;;;;;;;1.35;0.45;;;3.70;99.90;;;;;;5061330;28;20043;-70
2023/03/05 02:54:33;;;;;;;1.40;0.40;;;3.80;99.90;;;;;;5060087;28;20633;-70
2023/03/05 02:56:59;;;;;;;1.73;0.40;;;3.60;99.90;;;;;;5079212;28;20043;-70
2023/03/05 02:59:24;;;;;;;2.35;0.50;;;3.70;99.90;;;;;;5081259;28;20114;-70
2023/03/05 03:01:50;;;;;;;2.92;0.60;;;3.70;99.90;;;;;;5064617;28;20047;-70
2023/03/05 03:04:15;;;;;;;4.80;0.60;;;3.60;99.90;;;;;;5080513;28;21698;-70
2023/03/05 03:06:41;;;;;;;2.28;0.60;;;3.60;99.90;;;;;;5080647;28;20132;-70
2023/03/05 03:09:07;;;;;;;2.63;0.57;;;3.70;99.90;;;;;;5061178;28;20055;-70
2023/03/05 03:11:33;;;;;;;2.80;0.50;;;3.80;99.90;;;;;;5065906;28;20079;-71
2023/03/05 03:13:59;;;;;;;0.98;0.40;;;3.80;99.90;;;;;;5084916;28;20534;-70
2023/03/05 03:16:25;;;;;;;;;;;3.80;99.90;;;;;;5089632;28;20035;-71
2023/03/05 03:18:50;;;;;;;3.60;0.60;;;3.90;99.90;;;;;;5056744;28;20342;-71
2023/03/05 03:21:22;;;;;;;4.32;0.70;;;3.80;99.90;;;;;;5073510;28;20130;-71
2023/03/05 03:23:48;;;;;;;3.58;0.70;;;4.00;99.90;;;;;;5079391;28;20035;-71
2023/03/05 03:26:14;;;;;;;1.83;0.50;;;3.90;99.90;;;;;;5105393;28;20381;-71
2023/03/05 03:28:40;;;;;;;2.33;0.63;;;3.80;99.90;;;;;;5085900;28;20047;-71
2023/03/05 03:31:06;;;;;;;2.10;0.50;;;3.90;99.90;;;;;;5082932;28;20047;-71
2023/03/05 03:33:31;;;;;;;3.17;0.77;;;3.90;99.90;;;;;;5108483;28;20051;-71
2023/03/05 03:35:57;;;;;;;2.92;0.68;;;3.80;99.90;;;;;;5081343;28;20469;-71
2023/03/05 03:38:23;;;;;;;3.57;0.53;;;3.90;99.90;;;;;;5089928;28;20157;-71
2023/03/05 03:40:48;;;;;;;3.17;0.60;;;3.80;99.90;;;;;;5067070;28;20327;-71
2023/03/05 03:43:14;;;;;;;3.58;0.90;;;3.80;99.90;;;;;;5085594;28;20126;-71
2023/03/05 03:45:43;;;;;;;4.22;0.68;;;3.80;99.90;;;;;;5088548;28;20051;-71
2023/03/05 03:48:10;;;;;;;3.13;0.80;;;3.90;99.90;;;;;;5072982;28;20051;-71
2023/03/05 03:50:40;;;;;;;3.92;0.88;;;3.90;99.90;;;;;;5077629;28;20051;-71
2023/03/05 03:53:06;;;;;;;3.90;0.77;;;3.80;99.90;;;;;;5085396;28;20042;-71
2023/03/05 03:55:32;;;;;;;;;;;3.80;99.90;;;;;;5083969;28;20048;-71
2023/03/05 03:57:58;;;;;;;3.53;0.57;;;3.90;99.90;;;;;;5073169;28;20299;-71
2023/03/05 04:00:24;;;;;;;1.80;0.60;;;3.80;99.90;;;;;;5075014;28;20036;-71
2023/03/05 04:02:49;;;;;;;2.42;0.70;;;3.70;99.90;;;;;;5089973;28;20085;-69
2023/03/05 04:05:15;;;;;;;1.30;0.40;;;3.60;99.90;;;;;;5082230;28;20341;-70
2023/03/05 04:07:41;;;;;;;2.00;0.40;;;3.50;99.90;;;;;;5083082;28;20388;-70
2023/03/05 04:10:07;;;;;;;2.20;0.50;;;3.40;99.90;;;;;;5086086;28;20397;-70
2023/03/05 04:12:33;;;;;;;1.73;0.32;;;3.40;99.90;;;;;;5077869;28;20036;-69
2023/03/05 04:14:58;;;;;;;1.42;0.40;;;3.50;99.90;;;;;;5080579;28;20050;-69
2023/03/05 04:17:27;;;;;;;1.35;0.30;;;3.40;99.90;;;;;;5105879;28;20040;-69
2023/03/05 04:19:53;;;;;;;1.90;0.50;;;3.30;99.90;;;;;;5084940;28;20050;-69
2023/03/05 04:22:18;;;;;;;0.73;0.30;;;3.50;99.90;;;;;;5091091;28;20325;-69
2023/03/05 04:24:44;;;;;;;1.10;0.20;;;3.40;99.90;;;;;;5066622;28;20050;-70
2023/03/05 04:27:10;;;;;;;2.05;0.50;;;3.40;99.90;;;;;;5084646;28;20479;-70
2023/03/05 04:29:36;;;;;;;1.95;0.57;;;3.50;99.90;;;;;;5084709;28;20047;-70
2023/03/05 04:32:02;;;;;;;2.15;0.40;;;3.60;99.90;;;;;;5067929;28;20406;-70
2023/03/05 04:34:28;;;;;;;1.35;0.30;;;3.60;99.90;;;;;;5084232;28;20046;-70
2023/03/05 04:36:54;;;;;;;1.40;0.30;;;3.50;99.90;;;;;;5086687;28;20039;-70
2023/03/05 04:39:19;;;;;;;1.38;0.43;;;3.50;99.90;;;;;;5071974;28;20414;-70
2023/03/05 04:41:46;;;;;;;1.10;0.40;;;3.70;99.90;;;;;;5089112;28;20055;-70
2023/03/05 04:44:13;;;;;;;2.67;0.43;;;3.60;99.90;;;;;;5091716;28;20108;-70
2023/03/05 04:46:39;;;;;;;2.53;0.60;;;3.70;99.90;;;;;;5104781;28;20048;-70
2023/03/05 04:49:04;;;;;;;1.20;0.38;;;3.60;99.90;;;;;;5071679;28;20355;-70
2023/03/05 04:51:30;;;;;;;0.93;0.30;;;3.70;99.90;;;;;;5076070;28;20044;-70
2023/03/05 04:53:56;;;;;;;3.10;1.40;;;3.70;99.90;;;;;;5088675;28;20032;-70
2023/03/05 04:56:22;;;;;;;1.48;0.50;;;3.60;99.90;;;;;;5084498;28;20528;-70
2023/03/05 04:58:48;;;;;;;1.98;0.45;;;3.80;99.90;;;;;;5078573;28;20039;-70
2023/03/05 05:01:13;;;;;;;1.70;0.73;;;3.60;99.90;;;;;;5078035;28;20039;-71
2023/03/05 05:03:39;;;;;;;5.38;0.55;;;3.80;99.90;;;;;;5077990;28;20447;-71
2023/03/05 05:06:05;;;;;;;1.25;0.50;;;3.80;99.90;;;;;;5094061;28;20481;-70
2023/03/05 05:08:31;;;;;;;2.28;0.60;;;3.80;99.90;;;;;;5086513;28;20050;-70
2023/03/05 05:11:03;;;;;;;3.28;0.60;;;3.90;99.90;;;;;;5081743;28;20047;-70
2023/03/05 05:13:29;;;;;;;2.70;0.70;;;3.90;99.90;;;;;;5069279;28;20059;-70
2023/03/05 05:15:56;;;;;;;2.97;0.60;;;4.00;99.90;;;;;;5085788;28;20142;-70
2023/03/05 05:18:22;;;;;;;;;;;3.80;99.90;;;;;;5069528;28;20383;-70
2023/03/05 05:20:47;;;;;;;3.05;0.45;;;3.80;99.90;;;;;;5075512;28;19915;-70
2023/03/05 05:23:13;;;;;;;2.22;1.10;;;3.80;99.90;;;;;;5084015;28;20136;-71
2023/03/05 05:25:39;;;;;;;1.85;0.40;;;3.80;99.90;;;;;;5081814;28;20482;-70
2023/03/05 05:28:05;;;;;;;6.47;1.25;;;3.70;99.90;;;;;;5085744;28;20044;-70
2023/03/05 05:30:31;;;;;;;2.13;0.60;;;3.70;99.90;;;;;;5081397;28;20043;-71
2023/03/05 05:32:57;;;;;;;2.22;0.40;;;3.60;99.90;;;;;;5060003;28;20040;-69
2023/03/05 05:35:22;;;;;;;0.50;0.20;;;3.70;99.90;;;;;;5086447;28;20047;-69
2023/03/05 05:37:48;;;;;;;2.20;0.50;;;3.80;99.90;;;;;;5087426;28;20047;-69
2023/03/05 05:40:14;;;;;;;2.03;0.43;;;3.70;99.90;;;;;;5075476;28;20484;-70
2023/03/05 05:42:40;;;;;;;1.35;0.30;;;3.70;99.90;;;;;;5068874;28;20039;-69
2023/03/05 05:45:06;;;;;;;2.80;0.55;;;3.60;99.90;;;;;;5090984;28;20035;-69
2023/03/05 05:47:32;;;;;;;1.55;0.30;;;3.50;99.90;;;;;;5088386;28;20040;-70
2023/03/05 05:49:58;;;;;;;1.27;0.38;;;3.50;99.90;;;;;;5081384;28;20101;-69
2023/03/05 05:52:23;;;;;;;1.42;0.40;;;3.50;99.90;;;;;;5088297;28;20141;-69
2023/03/05 05:54:49;;;;;;;2.15;0.47;;;3.40;99.90;;;;;;5073275;28;20040;-69
2023/03/05 05:57:15;;;;;;;2.40;0.35;;;3.30;99.90;;;;;;5061579;28;20043;-69
2023/03/05 05:59:40;;;;;;;1.80;0.57;;;3.30;99.90;;;;;;5068251;28;20132;-69
2023/03/05 06:02:07;;;;;;;1.80;0.52;;;3.20;99.90;;;;;;5063120;28;20772;-69
2023/03/05 06:04:36;;;;;;;;;;;3.20;99.90;;;;;;5090008;28;20043;-70
2023/03/05 06:07:02;;;;;;;1.00;0.30;;;3.10;99.90;;;;;;5085795;28;19927;-70
2023/03/05 06:09:28;;;;;;;1.27;0.38;;;3.10;99.90;;;;;;5086482;28;20068;-70
2023/03/05 06:11:54;;;;;;;1.20;0.20;;;3.10;99.90;;;;;;5067544;28;20043;-70
2023/03/05 06:14:19;;;;;;;1.83;0.30;;;3.10;99.90;;;;;;5086309;28;20040;-70
2023/03/05 06:16:45;;;;;;;1.52;0.35;;;3.00;99.90;;;;;;5068724;28;20051;-70
2023/03/05 06:19:12;;;;;;;0.75;0.40;;;3.00;99.90;;;;;;5085047;28;20584;-70
2023/03/05 06:21:39;;;;;;;0.30;0.20;;;3.00;99.90;;;;;;5083969;28;20035;-70
2023/03/05 06:24:05;;;;;;;0.75;0.38;;;3.00;99.90;;;;;;5076724;28;20039;-70
2023/03/05 06:26:31;;;;;;;0.63;0.20;;;3.00;99.90;;;;;;5077640;28;20040;-70
2023/03/05 06:28:57;;;;;;;1.00;0.20;;;3.00;99.90;;;;;;5081119;28;20035;-70
2023/03/05 06:31:25;;;;;;;0.38;0.20;;;2.90;99.90;;;;;;5082884;28;20071;-71
2023/03/05 06:33:52;;;;;;;0.75;0.30;;;2.90;99.90;;;;;;5056891;28;20397;-72
2023/03/05 06:36:19;;;;;;;0.52;0.20;;;3.00;99.90;;;;;;5059188;28;20074;-71
2023/03/05 06:38:46;;;;;;;2.33;0.40;;;3.10;99.90;;;;;;5073392;28;20946;-71
2023/03/05 06:41:14;;;;;;;2.63;0.30;;;3.00;99.90;;;;;;5076791;28;20036;-70
2023/03/05 06:43:41;;;;;;;0.60;0.30;;;3.10;99.90;;;;;;5088423;28;20115;-70
2023/03/05 06:46:17;;;;;;;4.03;0.63;;;3.00;99.90;;;;;;5079535;28;20475;-70
2023/03/05 06:48:43;;;;;;;2.97;0.40;;;3.00;99.90;;;;;;5075881;28;20097;-70
2023/03/05 06:51:13;;;;;;;1.52;0.22;;;3.00;99.90;;;;;;5069689;28;20047;-71
2023/03/05 06:53:39;;;;;;;1.65;0.47;;;3.10;99.90;;;;;;5080825;28;20489;-71
2023/03/05 06:56:05;;;;;;;1.05;0.40;;;3.20;99.90;;;;;;5067697;28;20046;-69
2023/03/05 06:58:31;;;;;;;1.33;0.50;;;3.20;99.90;;;;;;5108828;28;20039;-70
2023/03/05 07:00:57;;;;;;;2.30;0.40;;;3.20;99.90;;;;;;5065009;28;20088;-70
2023/03/05 07:03:22;;;;;;;1.60;0.50;;;3.40;99.90;;;;;;5106558;28;20055;-70
2023/03/05 07:05:48;;;;;;;0.98;0.30;;;3.30;99.90;;;;;;5067729;28;20052;-70
2023/03/05 07:08:14;;;;;;;4.30;0.40;;;3.40;99.90;;;;;;5076114;28;20059;-70
2023/03/05 07:10:42;;;;;;;2.17;0.40;;;3.50;99.90;;;;;;5083301;28;20119;-70
2023/03/05 07:13:09;;;;;;;1.88;0.38;;;3.60;99.90;;;;;;5078528;28;20044;-70
2023/03/05 07:15:38;;;;;;;2.20;0.50;;;3.50;99.90;;;;;;5084364;28;20044;-70
2023/03/05 07:18:03;;;;;;;1.40;0.30;;;3.70;99.90;;;;;;5089192;28;20040;-70
2023/03/05 07:20:29;;;;;;;2.42;0.45;;;3.60;99.90;;;;;;5083858;28;20464;-70
2023/03/05 07:22:55;;;;;;;0.70;0.38;;;3.80;99.90;;;;;;5082519;28;20127;-70
2023/03/05 07:25:23;;;;;;;0.95;0.30;;;3.70;99.90;;;;;;5069195;28;20040;-69
2023/03/05 07:27:49;;;;;;;0.80;0.30;;;3.80;99.90;;;;;;5081300;28;20043;-69
2023/03/05 07:30:15;;;;;;;0.45;0.30;;;3.90;99.90;;;;;;5085579;28;20388;-70
2023/03/05 07:32:41;;;;;;;0.90;0.20;;;3.90;99.90;;;;;;5071940;28;20723;-69
2023/03/05 07:35:07;;;;;;;0.28;0.10;;;4.10;99.90;;;;;;5086995;28;20036;-69
2023/03/05 07:37:33;;;;;;;2.38;0.30;;;4.00;99.90;;;;;;5083759;28;20115;-70
2023/03/05 07:39:58;;;;;;;1.02;0.45;;;4.20;99.90;;;;;;5081537;28;20131;-70
2023/03/05 07:42:24;;;;;;;2.17;0.50;;;4.40;99.90;;;;;;5068525;28;20119;-70
2023/03/05 07:44:50;;;;;;;3.10;0.50;;;4.40;99.90;;;;;;5062736;28;20475;-70
2023/03/05 07:47:16;;;;;;;5.18;1.02;;;4.50;99.90;;;;;;5068807;28;20105;-70
2023/03/05 07:49:41;;;;;;;2.10;0.60;;;4.50;99.90;;;;;;5079799;28;20125;-70
2023/03/05 07:52:08;;;;;;;3.60;0.70;;;4.60;99.90;;;;;;5071698;28;20040;-69
2023/03/05 07:54:37;;;;;;;2.60;0.65;;;4.60;99.90;;;;;;5072149;28;20044;-69
2023/03/05 07:57:05;;;;;;;0.63;0.30;;;4.60;99.90;;;;;;5080614;28;20130;-70
2023/03/05 07:59:31;;;;;;;1.75;0.40;;;4.60;99.90;;;;;;5067632;28;20128;-70
2023/03/05 08:01:57;;;;;;;2.20;0.60;;;4.70;99.90;;;;;;5090138;28;20504;-70
2023/03/05 08:04:23;;;;;;;3.00;0.52;;;4.80;99.90;;;;;;5090006;28;20040;-70
2023/03/05 08:06:49;;;;;;;;;;;4.80;99.90;;;;;;5081754;28;20396;-70
2023/03/05 08:09:16;;;;;;;4.93;0.68;;;4.70;99.90;;;;;;5084503;28;19919;-70
2023/03/05 08:11:42;;;;;;;1.52;0.68;;;4.70;99.90;;;;;;5089637;28;20398;-69
2023/03/05 08:14:08;;;;;;;3.47;0.70;;;4.80;99.90;;;;;;5092609;28;20114;-69
2023/03/05 08:16:34;;;;;;;1.83;0.68;;;4.70;99.90;;;;;;5086743;28;20050;-69
2023/03/05 08:19:00;;;;;;;2.50;0.60;;;4.70;99.90;;;;;;5080632;28;20040;-69
2023/03/05 08:21:29;;;;;;;2.20;0.60;;;4.80;99.90;;;;;;5080002;28;20032;-69
2023/03/05 08:23:56;;;;;;;5.57;0.90;;;4.80;99.90;;;;;;5079261;28;20050;-69
2023/03/05 08:26:25;;;;;;;4.43;0.60;;;4.70;99.90;;;;;;5086138;28;20039;-70
2023/03/05 08:28:50;;;;;;;3.50;0.75;;;4.70;99.90;;;;;;5081086;28;20054;-69
2023/03/05 08:31:20;;;;;;;2.85;0.85;;;4.80;99.90;;;;;;5084086;28;20032;-70
2023/03/05 08:33:47;;;;;;;3.67;0.68;;;4.80;99.90;;;;;;5086229;28;20035;-69
2023/03/05 08:36:13;;;;;;;6.75;1.00;;;4.90;99.90;;;;;;5079360;28;20522;-70
2023/03/05 08:38:38;;;;;;;5.30;0.90;;;4.90;99.90;;;;;;5087980;28;20035;-70
2023/03/05 08:41:05;;;;;;;3.08;0.65;;;5.00;99.90;;;;;;5081231;28;20042;-70
2023/03/05 08:43:32;;;;;;;;;;;5.10;99.90;;;;;;5080575;28;20495;-70
2023/03/05 08:45:59;;;;;;;3.63;0.90;;;5.20;99.90;;;;;;5048906;28;19924;-70
2023/03/05 08:48:24;;;;;;;2.33;0.70;;;5.30;99.90;;;;;;5077691;28;20050;-70
2023/03/05 08:50:50;;;;;;;7.20;1.13;;;5.30;99.90;;;;;;5063774;28;20051;-70
2023/03/05 08:53:16;;;;;;;3.70;0.88;;;5.30;99.90;;;;;;5090771;28;20118;-70
2023/03/05 08:55:42;;;;;;;2.53;0.73;;;5.30;99.90;;;;;;5071888;28;20040;-70
2023/03/05 08:58:08;;;;;;;3.75;1.30;;;5.40;99.90;;;;;;5066510;28;20043;-70
2023/03/05 09:00:33;;;;;;;2.10;0.70;;;5.40;99.90;;;;;;5083567;28;20040;-70
2023/03/05 09:02:59;;;;;;;2.55;0.70;;;5.60;99.90;;;;;;5085091;28;20454;-70
2023/03/05 09:05:25;;;;;;;2.15;0.70;;;5.60;99.90;;;;;;5091082;28;20039;-70
2023/03/05 09:07:50;;;;;;;4.43;0.80;;;5.80;99.90;;;;;;5069832;28;20134;-70
2023/03/05 09:10:17;;;;;;;4.65;1.05;;;5.80;99.90;;;;;;5090007;28;20047;-71
2023/03/05 09:12:43;;;;;;;3.25;0.75;;;5.70;99.90;;;;;;5087084;28;20052;-70
2023/03/05 09:15:10;;;;;;;3.30;0.60;;;5.20;99.90;;;;;;5056625;28;20203;-70
2023/03/05 09:17:38;;;;;;;1.08;0.50;;;4.90;99.90;;;;;;5087786;28;20035;-71
2023/03/05 09:20:05;;;;;;;3.40;0.40;;;4.60;99.90;;;;;;5074812;28;20074;-71
2023/03/05 09:22:31;;;;;;;1.58;0.25;;;4.50;99.90;;;;;;5069633;28;20552;-71
2023/03/05 09:24:56;;;;;;;2.45;0.40;;;4.50;99.90;;;;;;5080467;28;20078;-70
2023/03/05 09:27:22;;;;;;;1.85;0.40;;;4.50;99.90;;;;;;5084222;28;20151;-71
2023/03/05 09:29:48;;;;;;;2.70;0.65;;;4.60;99.90;;;;;;5077988;28;20039;-71
2023/03/05 09:32:14;;;;;;;1.48;0.30;;;4.60;99.90;;;;;;5088364;28;20032;-74
2023/03/05 09:34:40;;;;;;;6.07;0.80;;;4.80;99.90;;;;;;5087036;28;20047;-74
2023/03/05 09:37:07;;;;;;;1.60;0.57;;;4.80;99.90;;;;;;5090296;28;20035;-74
2023/03/05 09:39:32;;;;;;;3.35;0.70;;;4.90;99.90;;;;;;5083993;28;20119;-74
2023/03/05 09:42:42;;;;;;;3.60;0.60;;;5.00;99.90;;;;;;5071465;27;20390;-74
2023/03/05 09:45:35;;;;;;;4.45;0.50;;;5.20;99.90;;;;;;5065372;28;20734;-73
2023/03/05 09:48:23;;;;;;;3.67;0.55;;;5.20;99.90;;;;;;5069511;28;20055;-74
2023/03/05 09:50:54;;;;;;;1.98;1.00;;;5.40;99.90;;;;;;5081701;28;20188;-74
2023/03/05 09:53:43;;;;;;;4.43;0.93;;;5.50;99.90;;;;;;5083122;28;20150;-74
2023/03/05 09:56:13;;;;;;;6.90;0.70;;;5.70;99.90;;;;;;5084212;28;20215;-74
2023/03/05 09:58:45;;;;;;;5.40;0.80;;;5.90;99.90;;;;;;5084946;28;20093;-74
2023/03/05 10:01:21;;;;;;;3.25;0.80;;;6.00;99.90;;;;;;5104833;27;20135;-73
2023/03/05 10:04:01;;;;;;;8.82;1.00;;;6.10;99.90;;;;;;5084364;28;20091;-74
2023/03/05 10:06:35;;;;;;;4.68;0.80;;;6.00;99.90;;;;;;5090355;28;20388;-74
2023/03/05 10:09:10;;;;;;;3.97;0.80;;;5.90;99.90;;;;;;5090626;28;20083;-74
2023/03/05 10:11:41;;;;;;;6.70;1.20;;;5.80;99.90;;;;;;5090680;28;20042;-74
2023/03/05 10:14:40;;;;;;;6.10;0.70;;;5.70;99.90;;;;;;5080929;28;20036;-74
2023/03/05 10:17:43;;;;;;;5.05;0.68;;;5.70;99.90;;;;;;5083283;28;20047;-73
2023/03/05 10:20:39;;;;;;;3.22;0.95;;;5.80;99.90;;;;;;5086661;28;20040;-74
2023/03/05 10:23:33;;;;;;;4.35;0.80;;;5.90;99.90;;;;;;5074635;28;20136;-74
2023/03/05 10:26:29;;;;;;;3.50;0.70;;;6.10;99.90;;;;;;5088180;28;20038;-74
2023/03/05 10:29:15;;;;;;;3.97;1.00;;;6.20;99.90;;;;;;5077642;28;20050;-74
2023/03/05 10:32:13;;;;;;;3.75;1.00;;;6.40;99.90;;;;;;5083499;28;20083;-74
2023/03/05 10:35:06;;;;;;;3.80;0.70;;;6.60;99.90;;;;;;5062747;28;20411;-74
2023/03/05 10:37:57;;;;;;;6.50;1.15;;;6.80;99.90;;;;;;5085545;28;20043;-74
2023/03/05 10:40:28;;;;;;;5.07;0.75;;;6.80;99.90;;;;;;5090672;28;20075;-73
2023/03/05 10:42:59;;;;;;;3.42;0.63;;;6.70;99.90;;;;;;5101058;28;20040;-74
2023/03/05 10:45:31;;;;;;;5.63;0.70;;;6.80;99.90;;;;;;5086970;28;20061;-74
2023/03/05 10:48:19;;;;;;;4.63;0.82;;;6.90;99.90;;;;;;5090387;28;20133;-74
2023/03/05 10:50:50;;;;;;;5.30;0.73;;;6.80;99.90;;;;;;5086238;27;20126;-74
2023/03/05 10:53:30;;;;;;;1.83;0.50;;;6.80;97.10;;;;;;5087544;28;20058;-74
2023/03/05 10:56:00;;;;;;;4.28;1.05;;;7.00;98.40;;;;;;5070686;28;20040;-73
2023/03/05 10:58:26;;;;;;;4.60;0.80;;;6.90;92.60;;;;;;5090259;28;20067;-73
2023/03/05 11:01:04;;;;;;;3.97;0.60;;;6.80;91.50;;;;;;5083494;28;20144;-74
2023/03/05 11:03:56;;;;;;;3.38;0.70;;;7.00;92.10;;;;;;5072252;28;20411;-74
2023/03/05 11:06:29;;;;;;;3.15;0.47;;;7.20;91.60;;;;;;5086407;28;20060;-73
2023/03/05 11:09:13;;;;;;;3.53;0.50;;;7.20;81.90;;;;;;5107384;28;20056;-73
2023/03/05 11:11:39;;;;;;;2.00;0.50;;;7.10;87.00;;;;;;5087316;28;20067;-73
2023/03/05 11:14:04;;;;;;;5.20;0.95;;;7.20;96.10;;;;;;5072686;28;20067;-74
2023/03/05 11:16:33;;;;;;;2.20;0.60;;;7.30;97.70;;;;;;5086804;28;20151;-73
2023/03/05 11:19:14;;;;;;;6.10;0.85;;;7.10;96.90;;;;;;5088320;28;20416;-73
2023/03/05 11:21:42;;;;;;;2.90;0.85;;;6.90;96.80;;;;;;5088804;28;20043;-73
2023/03/05 11:24:07;;;;;;;3.42;0.63;;;7.30;99.00;;;;;;5102613;28;20414;-73
2023/03/05 11:26:33;;;;;;;2.87;0.60;;;7.60;92.60;;;;;;5086232;28;20047;-73
2023/03/05 11:29:02;;;;;;;5.45;0.60;;;7.50;82.70;;;;;;5075093;28;20301;-73
2023/03/05 11:31:31;;;;;;;1.33;0.40;;;7.60;78.50;;;;;;5093919;28;20497;-73
2023/03/05 11:34:00;;;;;;;4.25;0.60;;;7.70;64.00;;;;;;5090610;28;20086;-73
2023/03/05 11:37:02;;;;;;;2.08;0.63;;;7.50;53.50;;;;;;5093146;28;20039;-73
2023/03/05 11:39:32;;;;;;;2.13;0.63;;;7.30;56.20;;;;;;5093948;27;20044;-73
2023/03/05 11:42:04;;;;;;;2.83;0.60;;;7.20;69.40;;;;;;5094050;28;21166;-73
2023/03/05 11:44:37;;;;;;;3.85;0.40;;;7.00;55.50;;;;;;5112745;27;20629;-73
2023/03/05 11:47:12;;;;;;;1.05;0.30;;;7.10;54.90;;;;;;5075566;28;20047;-73
2023/03/05 11:49:43;;;;;;;2.42;0.70;;;7.50;74.00;;;;;;5074904;28;20027;-73
2023/03/05 11:52:20;;;;;;;4.90;0.60;;;7.40;65.70;;;;;;5073398;27;20038;-74
2023/03/05 11:55:07;;;;;;;2.08;0.40;;;7.20;66.40;;;;;;5085313;28;20466;-74
2023/03/05 11:57:38;;;;;;;;;;;7.10;73.60;;;;;;5082053;28;20115;-72
2023/03/05 12:00:11;;;;;;;2.78;0.50;;;7.10;79.40;;;;;;5089721;28;20221;-73
2023/03/05 12:02:37;;;;;;;2.67;0.70;;;7.10;74.00;;;;;;5075309;28;20035;-73
2023/03/05 12:05:06;;;;;;;3.47;0.80;;;7.10;77.00;;;;;;5094481;28;20555;-73
2023/03/05 12:07:40;;;;;;;3.17;0.68;;;7.00;78.20;;;;;;5095496;28;20071;-73
2023/03/05 12:10:13;;;;;;;1.92;0.52;;;6.70;70.90;;;;;;5091049;28;20062;-74
2023/03/05 12:12:47;;;;;;;3.83;0.60;;;6.50;73.40;;;;;;5089365;28;20036;-73
2023/03/05 12:15:16;;;;;;;4.80;1.10;;;6.70;83.40;;;;;;5094524;28;20059;-73
2023/03/05 12:17:57;;;;;;;3.35;0.70;;;6.90;79.20;;;;;;5093645;28;20131;-73
2023/03/05 12:20:41;;;;;;;5.00;0.80;;;7.30;83.20;;;;;;5078122;28;20031;-73
2023/03/05 12:23:21;;;;;;;2.92;0.70;;;7.70;74.80;;;;;;5091803;28;20035;-73
2023/03/05 12:25:58;;;;;;;3.42;0.70;;;7.80;65.20;;;;;;5094542;28;20043;-74
2023/03/05 12:28:33;;;;;;;1.88;0.60;;;7.50;54.00;;;;;;5092390;28;20592;-74
2023/03/05 12:31:04;;;;;;;4.00;0.85;;;7.40;60.80;;;;;;5109005;28;20043;-73
2023/03/05 12:33:40;;;;;;;4.30;0.73;;;7.30;54.10;;;;;;5092760;28;20509;-74
2023/03/05 12:36:21;;;;;;;1.77;0.70;;;7.50;60.00;;;;;;5109610;28;20032;-73
2023/03/05 12:38:55;;;;;;;2.30;0.55;;;7.90;58.70;;;;;;5093807;28;20398;-73
2023/03/05 12:41:23;;;;;;;3.28;0.75;;;7.80;52.60;;;;;;5081330;28;20772;-73
2023/03/05 12:44:04;;;;;;;5.95;1.10;;;7.70;59.10;;;;;;5093700;28;20043;-73
2023/03/05 12:46:44;;;;;;;4.53;0.60;;;7.40;62.00;;;;;;5086593;28;20047;-73
2023/03/05 12:49:19;;;;;;;4.90;0.82;;;7.10;70.80;;;;;;5089421;28;20114;-73
2023/03/05 12:52:14;;;;;;;3.45;0.73;;;7.00;78.50;;;;;;5090350;28;20047;-74
2023/03/05 12:54:42;;;;;;;3.03;0.68;;;7.00;84.30;;;;;;5082358;28;20067;-73
2023/03/05 12:57:21;;;;;;;2.22;1.00;;;7.10;85.30;;;;;;5110117;28;20042;-73
2023/03/05 13:00:13;;;;;;;2.45;0.60;;;7.20;71.30;;;;;;5080001;28;20032;-73
2023/03/05 13:02:44;;;;;;;3.72;0.77;;;7.30;61.90;;;;;;5087198;28;20107;-73
2023/03/05 13:05:22;;;;;;;2.78;0.70;;;7.40;52.00;;;;;;5078094;28;20051;-73
2023/03/05 13:07:48;;;;;;;2.83;0.80;;;7.40;43.30;;;;;;5083939;28;20533;-73